sensor_id;sensor_type;location;lat;lon;timestamp;pressure;altitude;pressure_sealevel;temperature;humidity
42601;BME280;28229;48.856;9.088;2023-02-18T00:00:25;98834.75;;;11.10;79.30
42601;BME280;28229;48.856;9.088;2023-02-18T00:02:52;98832.72;;;11.05;79.39
42601;BME280;28229;48.856;9.088;2023-02-18T00:05:18;98840.22;;;11.08;79.53
42601;BME280;28229;48.856;9.088;2023-02-18T00:07:44;98836.59;;;11.09;79.48
42601;BME280;28229;48.856;9.088;2023-02-18T00:10:12;98837.00;;;11.13;79.54
42601;BME280;28229;48.856;9.088;2023-02-18T00:12:39;98837.00;;;11.13;79.42
42601;BME280;28229;48.856;9.088;2023-02-18T00:15:06;98830.50;;;11.09;79.50
42601;BME280;28229;48.856;9.088;2023-02-18T00:17:32;98834.75;;;11.10;79.74
42601;BME280;28229;48.856;9.088;2023-02-18T00:19:59;98842.47;;;11.11;79.62
42601;BME280;28229;48.856;9.088;2023-02-18T00:22:25;98840.63;;;11.12;79.53
42601;BME280;28229;48.856;9.088;2023-02-18T00:24:51;98835.75;;;11.09;79.59
42601;BME280;28229;48.856;9.088;2023-02-18T00:27:17;98832.50;;;11.07;79.95
42601;BME280;28229;48.856;9.088;2023-02-18T00:29:43;98842.25;;;11.06;80.07
42601;BME280;28229;48.856;9.088;2023-02-18T00:32:10;98830.50;;;11.09;79.83
42601;BME280;28229;48.856;9.088;2023-02-18T00:34:36;98842.47;;;11.11;79.74
42601;BME280;28229;48.856;9.088;2023-02-18T00:37:03;98831.53;;;11.14;79.79
42601;BME280;28229;48.856;9.088;2023-02-18T00:39:29;98814.69;;;11.09;79.46
42601;BME280;28229;48.856;9.088;2023-02-18T00:41:55;98808.22;;;11.04;79.81
42601;BME280;28229;48.856;9.088;2023-02-18T00:44:22;98812.69;;;11.11;79.11
42601;BME280;28229;48.856;9.088;2023-02-18T00:46:48;98801.34;;;11.03;79.74
42601;BME280;28229;48.856;9.088;2023-02-18T00:49:15;98787.13;;;11.04;79.34
42601;BME280;28229;48.856;9.088;2023-02-18T00:51:42;98788.78;;;11.05;79.05
42601;BME280;28229;48.856;9.088;2023-02-18T00:54:08;98794.25;;;11.11;78.47
42601;BME280;28229;48.856;9.088;2023-02-18T00:56:34;98788.56;;;11.14;78.47
42601;BME280;28229;48.856;9.088;2023-02-18T00:59:00;98788.78;;;11.19;78.16
42601;BME280;28229;48.856;9.088;2023-02-18T01:01:27;98792.88;;;11.21;78.15
42601;BME280;28229;48.856;9.088;2023-02-18T01:03:53;98794.88;;;11.19;77.96
42601;BME280;28229;48.856;9.088;2023-02-18T01:06:19;98803.59;;;11.20;78.41
42601;BME280;28229;48.856;9.088;2023-02-18T01:08:47;98803.00;;;11.18;78.59
42601;BME280;28229;48.856;9.088;2023-02-18T01:11:14;98792.44;;;11.18;78.55
42601;BME280;28229;48.856;9.088;2023-02-18T01:13:40;98796.09;;;11.17;78.43
42601;BME280;28229;48.856;9.088;2023-02-18T01:16:07;98783.53;;;11.19;78.15
42601;BME280;28229;48.856;9.088;2023-02-18T01:18:35;98793.84;;;11.14;78.30
42601;BME280;28229;48.856;9.088;2023-02-18T01:21:05;98795.25;;;11.10;78.52
42601;BME280;28229;48.856;9.088;2023-02-18T01:23:36;98787.16;;;11.11;78.29
42601;BME280;28229;48.856;9.088;2023-02-18T01:26:03;98785.53;;;11.10;78.72
42601;BME280;28229;48.856;9.088;2023-02-18T01:28:29;98788.34;;;11.09;78.87
42601;BME280;28229;48.856;9.088;2023-02-18T01:30:56;98783.72;;;11.04;79.21
42601;BME280;28229;48.856;9.088;2023-02-18T01:33:24;98786.91;;;10.99;79.41
42601;BME280;28229;48.856;9.088;2023-02-18T01:35:51;98787.91;;;10.92;79.81
42601;BME280;28229;48.856;9.088;2023-02-18T01:38:17;98786.72;;;10.88;79.98
42601;BME280;28229;48.856;9.088;2023-02-18T01:40:46;98785.69;;;10.89;80.10
42601;BME280;28229;48.856;9.088;2023-02-18T01:43:13;98782.63;;;10.85;79.91
42601;BME280;28229;48.856;9.088;2023-02-18T01:50:56;98778.16;;;10.79;80.09
42601;BME280;28229;48.856;9.088;2023-02-18T01:54:05;98785.88;;;10.80;80.35
42601;BME280;28229;48.856;9.088;2023-02-18T01:56:27;98781.00;;;10.77;80.09
42601;BME280;28229;48.856;9.088;2023-02-18T01:58:56;98784.03;;;10.81;80.08
42601;BME280;28229;48.856;9.088;2023-02-18T02:01:24;98790.72;;;10.77;80.32
42601;BME280;28229;48.856;9.088;2023-02-18T02:03:51;98776.53;;;10.78;80.02
42601;BME280;28229;48.856;9.088;2023-02-18T02:06:20;98777.16;;;10.80;79.96
42601;BME280;28229;48.856;9.088;2023-02-18T02:08:53;98779.38;;;10.83;79.59
42601;BME280;28229;48.856;9.088;2023-02-18T02:11:40;98788.28;;;10.82;79.58
42601;BME280;28229;48.856;9.088;2023-02-18T02:14:21;98789.13;;;10.82;79.66
42601;BME280;28229;48.856;9.088;2023-02-18T02:17:03;98785.88;;;10.87;79.38
42601;BME280;28229;48.856;9.088;2023-02-18T02:25:30;98784.25;;;10.86;79.74
42601;BME280;28229;48.856;9.088;2023-02-18T02:34:19;98768.09;;;10.89;79.81
42601;BME280;28229;48.856;9.088;2023-02-18T02:39:56;98771.09;;;10.86;79.99
42601;BME280;28229;48.856;9.088;2023-02-18T02:46:05;98761.78;;;10.90;79.10
42601;BME280;28229;48.856;9.088;2023-02-18T02:53:40;98758.78;;;10.93;78.33
42601;BME280;28229;48.856;9.088;2023-02-18T02:56:16;98758.78;;;10.93;77.93
42601;BME280;28229;48.856;9.088;2023-02-18T02:58:44;98759.78;;;10.92;78.18
42601;BME280;28229;48.856;9.088;2023-02-18T03:04:20;98748.22;;;10.86;77.61
42601;BME280;28229;48.856;9.088;2023-02-18T03:09:58;98761.00;;;10.90;77.41
42601;BME280;28229;48.856;9.088;2023-02-18T03:12:35;98754.28;;;10.87;77.29
42601;BME280;28229;48.856;9.088;2023-02-18T03:15:50;98746.81;;;10.84;77.21
42601;BME280;28229;48.856;9.088;2023-02-18T03:21:42;98736.50;;;10.89;76.79
42601;BME280;28229;48.856;9.088;2023-02-18T03:24:16;98733.22;;;10.87;76.88
42601;BME280;28229;48.856;9.088;2023-02-18T03:26:50;98736.88;;;10.86;77.00
42601;BME280;28229;48.856;9.088;2023-02-18T03:29:18;98740.91;;;10.82;77.14
42601;BME280;28229;48.856;9.088;2023-02-18T03:31:53;98729.19;;;10.84;77.14
42601;BME280;28229;48.856;9.088;2023-02-18T03:34:28;98729.59;;;10.88;77.08
42601;BME280;28229;48.856;9.088;2023-02-18T03:36:56;98739.75;;;10.91;76.79
42601;BME280;28229;48.856;9.088;2023-02-18T03:39:26;98732.84;;;10.90;77.32
42601;BME280;28229;48.856;9.088;2023-02-18T03:41:54;98725.13;;;10.89;77.60
42601;BME280;28229;48.856;9.088;2023-02-18T03:44:20;98733.22;;;10.87;77.60
42601;BME280;28229;48.856;9.088;2023-02-18T03:46:46;98731.59;;;10.79;77.99
42601;BME280;28229;48.856;9.088;2023-02-18T03:49:14;98733.84;;;10.82;78.04
42601;BME280;28229;48.856;9.088;2023-02-18T03:51:41;98729.97;;;10.78;78.04
42601;BME280;28229;48.856;9.088;2023-02-18T03:54:08;98740.06;;;10.75;78.32
42601;BME280;28229;48.856;9.088;2023-02-18T03:56:36;98736.00;;;10.65;78.59
42601;BME280;28229;48.856;9.088;2023-02-18T03:59:02;98734.63;;;10.70;78.76
42601;BME280;28229;48.856;9.088;2023-02-18T04:01:29;98740.66;;;10.63;78.86
42601;BME280;28229;48.856;9.088;2023-02-18T04:03:56;98735.00;;;10.66;78.89
42601;BME280;28229;48.856;9.088;2023-02-18T04:06:22;98730.31;;;10.62;78.87
42601;BME280;28229;48.856;9.088;2023-02-18T04:08:49;98729.53;;;10.61;78.86
42601;BME280;28229;48.856;9.088;2023-02-18T04:11:17;98734.78;;;10.61;79.13
42601;BME280;28229;48.856;9.088;2023-02-18T04:13:43;98728.91;;;10.59;79.04
42601;BME280;28229;48.856;9.088;2023-02-18T04:16:10;98724.44;;;10.53;79.29
42601;BME280;28229;48.856;9.088;2023-02-18T04:18:36;98724.44;;;10.53;79.29
42601;BME280;28229;48.856;9.088;2023-02-18T04:21:03;98724.19;;;10.48;79.23
42601;BME280;28229;48.856;9.088;2023-02-18T04:23:29;98716.94;;;10.50;79.05
42601;BME280;28229;48.856;9.088;2023-02-18T04:25:55;98722.81;;;10.52;79.01
42601;BME280;28229;48.856;9.088;2023-02-18T04:28:21;98719.56;;;10.50;79.24
42601;BME280;28229;48.856;9.088;2023-02-18T04:30:47;98726.66;;;10.56;78.25
42601;BME280;28229;48.856;9.088;2023-02-18T04:33:14;98718.97;;;10.55;78.71
42601;BME280;28229;48.856;9.088;2023-02-18T04:35:40;98713.69;;;10.48;78.93
42601;BME280;28229;48.856;9.088;2023-02-18T04:38:08;98713.28;;;10.51;78.72
42601;BME280;28229;48.856;9.088;2023-02-18T04:40:35;98718.53;;;10.44;78.79
42601;BME280;28229;48.856;9.088;2023-02-18T04:43:02;98716.50;;;10.40;78.63
42601;BME280;28229;48.856;9.088;2023-02-18T04:45:28;98710.75;;;10.29;78.68
42601;BME280;28229;48.856;9.088;2023-02-18T04:47:54;98722.91;;;10.31;78.84
42601;BME280;28229;48.856;9.088;2023-02-18T04:50:21;98718.03;;;10.27;78.96
42601;BME280;28229;48.856;9.088;2023-02-18T04:52:48;98718.66;;;10.29;78.68
42601;BME280;28229;48.856;9.088;2023-02-18T04:55:14;98721.47;;;10.21;78.57
42601;BME280;28229;48.856;9.088;2023-02-18T04:57:41;98721.03;;;10.24;78.33
42601;BME280;28229;48.856;9.088;2023-02-18T05:00:09;98724.94;;;10.28;78.17
42601;BME280;28229;48.856;9.088;2023-02-18T05:02:38;98722.41;;;10.14;78.52
42601;BME280;28229;48.856;9.088;2023-02-18T05:05:05;98730.09;;;10.15;78.88
42601;BME280;28229;48.856;9.088;2023-02-18T05:07:31;98728.28;;;10.09;78.56
42601;BME280;28229;48.856;9.088;2023-02-18T05:09:57;98737.72;;;10.03;79.00
42601;BME280;28229;48.856;9.088;2023-02-18T05:12:23;98725.22;;;10.05;78.71
42601;BME280;28229;48.856;9.088;2023-02-18T05:14:49;98731.28;;;10.06;78.97
42601;BME280;28229;48.856;9.088;2023-02-18T05:17:15;98726.22;;;10.04;78.74
42601;BME280;28229;48.856;9.088;2023-02-18T05:19:42;98730.00;;;9.95;78.92
42601;BME280;28229;48.856;9.088;2023-02-18T05:22:08;98727.72;;;9.85;79.56
42601;BME280;28229;48.856;9.088;2023-02-18T05:24:34;98722.69;;;9.90;79.58
42601;BME280;28229;48.856;9.088;2023-02-18T05:27:03;98726.47;;;9.81;79.91
42601;BME280;28229;48.856;9.088;2023-02-18T05:29:29;98728.69;;;9.78;80.32
42601;BME280;28229;48.856;9.088;2023-02-18T05:31:55;98724.84;;;9.80;79.95
42601;BME280;28229;48.856;9.088;2023-02-18T05:34:21;98721.00;;;9.76;80.05
42601;BME280;28229;48.856;9.088;2023-02-18T05:36:47;98721.28;;;9.88;79.55
42601;BME280;28229;48.856;9.088;2023-02-18T05:39:14;98717.44;;;9.90;79.00
42601;BME280;28229;48.856;9.088;2023-02-18T05:41:40;98708.56;;;9.91;78.93
42601;BME280;28229;48.856;9.088;2023-02-18T05:44:06;98707.34;;;9.94;78.80
42601;BME280;28229;48.856;9.088;2023-02-18T05:46:51;98715.84;;;9.89;78.72
42601;BME280;28229;48.856;9.088;2023-02-18T05:49:17;98721.00;;;9.76;79.37
42601;BME280;28229;48.856;9.088;2023-02-18T05:51:43;98718.78;;;9.80;79.09
42601;BME280;28229;48.856;9.088;2023-02-18T05:54:09;98714.97;;;9.82;79.12
42601;BME280;28229;48.856;9.088;2023-02-18T05:56:35;98707.91;;;9.83;79.24
42601;BME280;28229;48.856;9.088;2023-02-18T05:59:02;98712.13;;;9.84;79.23
42601;BME280;28229;48.856;9.088;2023-02-18T06:01:28;98703.63;;;9.82;79.31
42601;BME280;28229;48.856;9.088;2023-02-18T06:03:54;98711.72;;;9.80;79.45
42601;BME280;28229;48.856;9.088;2023-02-18T06:06:20;98702.66;;;9.83;79.54
42601;BME280;28229;48.856;9.088;2023-02-18T06:08:46;98707.31;;;9.87;79.34
42601;BME280;28229;48.856;9.088;2023-02-18T06:11:13;98709.31;;;9.85;79.74
42601;BME280;28229;48.856;9.088;2023-02-18T06:13:39;98712.13;;;9.84;80.22
42601;BME280;28229;48.856;9.088;2023-02-18T06:16:05;98722.22;;;9.80;80.36
42601;BME280;28229;48.856;9.088;2023-02-18T06:18:31;98719.41;;;9.82;80.36
42601;BME280;28229;48.856;9.088;2023-02-18T06:20:57;98712.50;;;9.74;81.02
42601;BME280;28229;48.856;9.088;2023-02-18T06:23:24;98703.63;;;9.75;80.91
42601;BME280;28229;48.856;9.088;2023-02-18T06:25:50;98713.66;;;9.65;81.55
42601;BME280;28229;48.856;9.088;2023-02-18T06:28:17;98705.16;;;9.63;81.77
42601;BME280;28229;48.856;9.088;2023-02-18T06:30:44;98700.69;;;9.63;81.99
42601;BME280;28229;48.856;9.088;2023-02-18T06:33:10;98699.50;;;9.66;82.05
42601;BME280;28229;48.856;9.088;2023-02-18T06:35:37;98707.19;;;9.67;82.05
42601;BME280;28229;48.856;9.088;2023-02-18T06:38:03;98709.00;;;9.67;82.31
42601;BME280;28229;48.856;9.088;2023-02-18T06:40:29;98710.84;;;9.73;82.48
42601;BME280;28229;48.856;9.088;2023-02-18T06:42:56;98708.22;;;9.73;82.53
42601;BME280;28229;48.856;9.088;2023-02-18T06:45:22;98715.72;;;9.76;82.51
42601;BME280;28229;48.856;9.088;2023-02-18T06:47:48;98716.59;;;9.83;84.64
42601;BME280;28229;48.856;9.088;2023-02-18T06:50:14;98718.41;;;9.83;83.81
42601;BME280;28229;48.856;9.088;2023-02-18T06:52:40;98723.72;;;9.89;82.58
42601;BME280;28229;48.856;9.088;2023-02-18T06:55:07;98712.78;;;9.93;82.39
42601;BME280;28229;48.856;9.088;2023-02-18T06:57:37;98713.81;;;9.91;82.78
42601;BME280;28229;48.856;9.088;2023-02-18T07:00:04;98709.94;;;9.87;82.84
42601;BME280;28229;48.856;9.088;2023-02-18T07:02:30;98710.56;;;9.89;82.75
42601;BME280;28229;48.856;9.088;2023-02-18T07:04:56;98701.59;;;9.77;83.74
42601;BME280;28229;48.856;9.088;2023-02-18T07:07:23;98700.59;;;9.78;83.53
42601;BME280;28229;48.856;9.088;2023-02-18T07:09:49;98697.56;;;9.81;83.71
42601;BME280;28229;48.856;9.088;2023-02-18T07:12:15;98699.59;;;9.79;84.05
42601;BME280;28229;48.856;9.088;2023-02-18T07:14:41;98702.66;;;9.83;83.71
42601;BME280;28229;48.856;9.088;2023-02-18T07:17:07;98705.47;;;9.81;83.84
42601;BME280;28229;48.856;9.088;2023-02-18T07:19:33;98703.81;;;9.80;83.59
42601;BME280;28229;48.856;9.088;2023-02-18T07:21:59;98699.72;;;9.71;84.45
42601;BME280;28229;48.856;9.088;2023-02-18T07:24:26;98698.56;;;9.80;83.92
42601;BME280;28229;48.856;9.088;2023-02-18T07:26:52;98695.78;;;9.88;83.38
42601;BME280;28229;48.856;9.088;2023-02-18T07:29:18;98688.53;;;9.90;83.24
42601;BME280;28229;48.856;9.088;2023-02-18T07:31:44;98685.13;;;9.97;82.46
42601;BME280;28229;48.856;9.088;2023-02-18T07:34:11;98681.09;;;10.01;82.45
42601;BME280;28229;48.856;9.088;2023-02-18T07:36:37;98679.72;;;10.12;81.65
42601;BME280;28229;48.856;9.088;2023-02-18T07:39:03;98680.16;;;10.15;81.37
42601;BME280;28229;48.856;9.088;2023-02-18T07:41:29;98683.25;;;10.25;80.77
42601;BME280;28229;48.856;9.088;2023-02-18T07:43:55;98685.94;;;10.32;80.46
42601;BME280;28229;48.856;9.088;2023-02-18T07:46:21;98682.31;;;10.40;80.16
42601;BME280;28229;48.856;9.088;2023-02-18T07:48:48;98676.84;;;10.41;79.67
42601;BME280;28229;48.856;9.088;2023-02-18T07:51:14;98669.19;;;10.46;79.38
42601;BME280;28229;48.856;9.088;2023-02-18T07:53:40;98669.19;;;10.53;79.07
42601;BME280;28229;48.856;9.088;2023-02-18T07:56:07;98668.41;;;10.59;79.03
42601;BME280;28229;48.856;9.088;2023-02-18T07:58:36;98669.00;;;10.61;78.51
42601;BME280;28229;48.856;9.088;2023-02-18T08:01:08;98673.28;;;10.76;77.59
42601;BME280;28229;48.856;9.088;2023-02-18T08:03:35;98674.50;;;10.80;77.47
42601;BME280;28229;48.856;9.088;2023-02-18T08:06:03;98681.81;;;10.84;77.14
42601;BME280;28229;48.856;9.088;2023-02-18T08:08:31;98676.97;;;10.95;76.70
42601;BME280;28229;48.856;9.088;2023-02-18T08:10:59;98682.63;;;10.98;76.34
42601;BME280;28229;48.856;9.088;2023-02-18T08:13:31;98679.78;;;11.07;74.97
42601;BME280;28229;48.856;9.088;2023-02-18T08:15:58;98685.47;;;11.17;74.13
42601;BME280;28229;48.856;9.088;2023-02-18T08:18:25;98690.94;;;11.22;73.90
42601;BME280;28229;48.856;9.088;2023-02-18T08:20:52;98686.91;;;11.39;72.25
42601;BME280;28229;48.856;9.088;2023-02-18T08:23:20;98684.66;;;11.36;72.95
42601;BME280;28229;48.856;9.088;2023-02-18T08:25:50;98681.84;;;11.45;73.06
42601;BME280;28229;48.856;9.088;2023-02-18T08:28:18;98675.72;;;11.51;72.45
42601;BME280;28229;48.856;9.088;2023-02-18T08:30:48;98676.13;;;11.48;72.30
42601;BME280;28229;48.856;9.088;2023-02-18T08:33:15;98673.28;;;11.56;71.87
42601;BME280;28229;48.856;9.088;2023-02-18T08:35:42;98664.38;;;11.57;72.03
42601;BME280;28229;48.856;9.088;2023-02-18T08:38:08;98668.22;;;11.61;71.99
42601;BME280;28229;48.856;9.088;2023-02-18T08:40:35;98662.53;;;11.64;71.80
42601;BME280;28229;48.856;9.088;2023-02-18T08:43:01;98663.34;;;11.71;70.42
42601;BME280;28229;48.856;9.088;2023-02-18T08:45:27;98671.84;;;11.80;71.02
42601;BME280;28229;48.856;9.088;2023-02-18T08:47:54;98672.84;;;11.79;71.21
42601;BME280;28229;48.856;9.088;2023-02-18T08:50:20;98659.84;;;11.84;70.98
42601;BME280;28229;48.856;9.088;2023-02-18T08:52:51;98661.25;;;11.87;71.18
42601;BME280;28229;48.856;9.088;2023-02-18T08:55:18;98668.97;;;11.95;71.28
42601;BME280;28229;48.856;9.088;2023-02-18T08:57:47;98663.09;;;11.93;71.27
42601;BME280;28229;48.856;9.088;2023-02-18T09:00:15;98669.97;;;11.94;71.29
42601;BME280;28229;48.856;9.088;2023-02-18T09:02:42;98665.94;;;11.98;70.98
42601;BME280;28229;48.856;9.088;2023-02-18T09:05:08;98664.69;;;12.00;70.92
42601;BME280;28229;48.856;9.088;2023-02-18T09:07:38;98661.66;;;12.04;70.63
42601;BME280;28229;48.856;9.088;2023-02-18T09:10:05;98655.53;;;12.03;71.32
42601;BME280;28229;48.856;9.088;2023-02-18T09:12:32;98658.56;;;12.13;70.61
42601;BME280;28229;48.856;9.088;2023-02-18T09:15:00;98654.06;;;12.21;70.36
42601;BME280;28229;48.856;9.088;2023-02-18T09:17:27;98648.38;;;12.24;69.57
42601;BME280;28229;48.856;9.088;2023-02-18T09:19:53;98635.38;;;12.29;69.50
42601;BME280;28229;48.856;9.088;2023-02-18T09:22:20;98648.75;;;12.27;69.66
42601;BME280;28229;48.856;9.088;2023-02-18T09:24:46;98633.53;;;12.29;70.06
42601;BME280;28229;48.856;9.088;2023-02-18T09:27:12;98616.88;;;12.35;69.04
42601;BME280;28229;48.856;9.088;2023-02-18T09:29:40;98635.28;;;12.42;68.92
42601;BME280;28229;48.856;9.088;2023-02-18T09:32:08;98630.78;;;12.49;68.59
42601;BME280;28229;48.856;9.088;2023-02-18T09:34:35;98636.88;;;12.50;69.20
42601;BME280;28229;48.856;9.088;2023-02-18T09:37:02;98632.41;;;12.50;69.62
42601;BME280;28229;48.856;9.088;2023-02-18T09:39:28;98622.63;;;12.57;68.13
42601;BME280;28229;48.856;9.088;2023-02-18T09:41:57;98632.38;;;12.57;68.75
42601;BME280;28229;48.856;9.088;2023-02-18T09:44:27;98631.13;;;12.60;68.70
42601;BME280;28229;48.856;9.088;2023-02-18T09:47:06;98627.47;;;12.61;68.79
42601;BME280;28229;48.856;9.088;2023-02-18T09:49:39;98625.00;;;12.66;67.60
42601;BME280;28229;48.856;9.088;2023-02-18T09:52:13;98626.53;;;12.80;67.83
42601;BME280;28229;48.856;9.088;2023-02-18T09:54:41;98626.06;;;12.83;67.80
42601;BME280;28229;48.856;9.088;2023-02-18T09:57:26;98630.13;;;12.86;66.59
42601;BME280;28229;48.856;9.088;2023-02-18T09:59:59;98628.47;;;12.91;66.22
42601;BME280;28229;48.856;9.088;2023-02-18T10:02:27;98630.22;;;12.98;65.50
42601;BME280;28229;48.856;9.088;2023-02-18T10:04:55;98632.88;;;12.98;66.01
42601;BME280;28229;48.856;9.088;2023-02-18T10:07:28;98639.38;;;13.02;65.17
42601;BME280;28229;48.856;9.088;2023-02-18T10:09:56;98647.88;;;13.04;64.41
42601;BME280;28229;48.856;9.088;2023-02-18T10:12:25;98645.81;;;13.06;64.57
42601;BME280;28229;48.856;9.088;2023-02-18T10:14:59;98637.47;;;13.09;63.26
42601;BME280;28229;48.856;9.088;2023-02-18T10:17:28;98641.28;;;13.13;62.38
42601;BME280;28229;48.856;9.088;2023-02-18T10:19:55;98640.28;;;13.14;62.63
42601;BME280;28229;48.856;9.088;2023-02-18T10:22:24;98638.81;;;13.18;62.35
42601;BME280;28229;48.856;9.088;2023-02-18T10:25:02;98649.53;;;13.23;62.56
42601;BME280;28229;48.856;9.088;2023-02-18T10:27:33;98639.53;;;13.32;62.25
42601;BME280;28229;48.856;9.088;2023-02-18T10:32:44;98641.88;;;13.40;62.18
42601;BME280;28229;48.856;9.088;2023-02-18T10:35:23;98637.59;;;13.46;62.17
42601;BME280;28229;48.856;9.088;2023-02-18T10:40:50;98640.16;;;13.52;61.31
42601;BME280;28229;48.856;9.088;2023-02-18T10:43:40;98632.59;;;13.56;61.40
42601;BME280;28229;48.856;9.088;2023-02-18T10:46:28;98631.78;;;13.56;60.98
42601;BME280;28229;48.856;9.088;2023-02-18T10:51:54;98627.31;;;13.56;62.26
42601;BME280;28229;48.856;9.088;2023-02-18T10:54:45;98628.28;;;13.62;62.07
42601;BME280;28229;48.856;9.088;2023-02-18T10:57:17;98616.81;;;13.68;61.67
42601;BME280;28229;48.856;9.088;2023-02-18T11:03:22;98609.09;;;13.85;61.06
42601;BME280;28229;48.856;9.088;2023-02-18T11:05:52;98614.97;;;13.87;60.47
42601;BME280;28229;48.856;9.088;2023-02-18T11:08:23;98608.06;;;13.86;60.82
42601;BME280;28229;48.856;9.088;2023-02-18T11:10:51;98617.00;;;13.85;59.96
42601;BME280;28229;48.856;9.088;2023-02-18T11:13:28;98598.50;;;13.85;59.88
42601;BME280;28229;48.856;9.088;2023-02-18T11:16:03;98606.00;;;13.88;59.69
42601;BME280;28229;48.856;9.088;2023-02-18T11:21:25;98597.06;;;13.89;58.66
42601;BME280;28229;48.856;9.088;2023-02-18T11:23:56;98595.00;;;13.91;58.55
42601;BME280;28229;48.856;9.088;2023-02-18T11:26:29;98599.63;;;13.96;57.89
42601;BME280;28229;48.856;9.088;2023-02-18T11:29:04;98596.28;;;14.00;57.46
42601;BME280;28229;48.856;9.088;2023-02-18T11:31:46;98591.00;;;14.00;59.33
42601;BME280;28229;48.856;9.088;2023-02-18T11:34:32;98600.09;;;14.04;58.25
42601;BME280;28229;48.856;9.088;2023-02-18T11:37:11;98594.09;;;13.97;57.80
42601;BME280;28229;48.856;9.088;2023-02-18T11:39:44;98584.97;;;13.93;58.20
42601;BME280;28229;48.856;9.088;2023-02-18T11:42:17;98586.91;;;13.86;58.24
42601;BME280;28229;48.856;9.088;2023-02-18T11:44:51;98585.88;;;13.87;57.59
42601;BME280;28229;48.856;9.088;2023-02-18T11:47:24;98572.66;;;13.87;57.82
42601;BME280;28229;48.856;9.088;2023-02-18T11:50:02;98581.19;;;13.89;57.79
42601;BME280;28229;48.856;9.088;2023-02-18T11:52:38;98575.44;;;13.92;58.26
42601;BME280;28229;48.856;9.088;2023-02-18T11:55:17;98581.47;;;13.99;57.78
42601;BME280;28229;48.856;9.088;2023-02-18T11:58:01;98573.06;;;14.02;57.43
42601;BME280;28229;48.856;9.088;2023-02-18T12:00:44;98574.34;;;14.12;58.07
42601;BME280;28229;48.856;9.088;2023-02-18T12:06:19;98578.50;;;14.07;58.07
42601;BME280;28229;48.856;9.088;2023-02-18T12:08:50;98589.50;;;14.04;57.83
42601;BME280;28229;48.856;9.088;2023-02-18T12:11:26;98576.75;;;14.01;58.41
42601;BME280;28229;48.856;9.088;2023-02-18T12:13:56;98566.91;;;13.90;57.93
42601;BME280;28229;48.856;9.088;2023-02-18T12:16:41;98568.97;;;13.88;58.07
42601;BME280;28229;48.856;9.088;2023-02-18T12:19:33;98585.59;;;13.77;58.41
42601;BME280;28229;48.856;9.088;2023-02-18T12:22:36;98574.88;;;13.71;58.61
42601;BME280;28229;48.856;9.088;2023-02-18T12:25:23;98581.34;;;13.57;58.06
42601;BME280;28229;48.856;9.088;2023-02-18T12:27:55;98570.63;;;13.52;58.57
42601;BME280;28229;48.856;9.088;2023-02-18T12:30:56;98579.56;;;13.51;58.97
42601;BME280;28229;48.856;9.088;2023-02-18T12:36:28;98571.38;;;13.41;58.90
42601;BME280;28229;48.856;9.088;2023-02-18T12:39:19;98574.66;;;13.36;59.37
42601;BME280;28229;48.856;9.088;2023-02-18T12:47:46;98568.50;;;13.17;60.48
42601;BME280;28229;48.856;9.088;2023-02-18T12:53:40;98556.75;;;13.13;60.46
42601;BME280;28229;48.856;9.088;2023-02-18T12:58:38;98557.44;;;13.08;60.61
42601;BME280;28229;48.856;9.088;2023-02-18T13:12:21;98563.91;;;12.87;61.57
42601;BME280;28229;48.856;9.088;2023-02-18T13:14:59;98550.53;;;12.82;62.00
42601;BME280;28229;48.856;9.088;2023-02-18T13:17:33;98552.16;;;12.83;61.89
42601;BME280;28229;48.856;9.088;2023-02-18T13:20:04;98544.09;;;12.78;61.88
42601;BME280;28229;48.856;9.088;2023-02-18T13:22:33;98546.13;;;12.76;62.00
42601;BME280;28229;48.856;9.088;2023-02-18T13:25:00;98533.94;;;12.75;61.86
42601;BME280;28229;48.856;9.088;2023-02-18T13:27:37;98531.31;;;12.75;62.27
42601;BME280;28229;48.856;9.088;2023-02-18T13:38:30;98527.41;;;12.77;62.10
42601;BME280;28229;48.856;9.088;2023-02-18T13:41:03;98522.97;;;12.78;61.97
42601;BME280;28229;48.856;9.088;2023-02-18T13:43:32;98530.72;;;12.73;61.90
42601;BME280;28229;48.856;9.088;2023-02-18T13:48:51;98514.59;;;12.81;62.45
42601;BME280;28229;48.856;9.088;2023-02-18T13:51:30;98506.25;;;12.84;62.59
42601;BME280;28229;48.856;9.088;2023-02-18T13:54:04;98514.31;;;12.89;61.44
42601;BME280;28229;48.856;9.088;2023-02-18T13:56:40;98515.13;;;12.90;60.96
42601;BME280;28229;48.856;9.088;2023-02-18T13:59:14;98521.44;;;12.89;61.38
42601;BME280;28229;48.856;9.088;2023-02-18T14:01:46;98505.34;;;12.90;61.76
42601;BME280;28229;48.856;9.088;2023-02-18T14:04:36;98494.16;;;12.95;60.98
42601;BME280;28229;48.856;9.088;2023-02-18T14:09:59;98489.97;;;13.06;62.05
42601;BME280;28229;48.856;9.088;2023-02-18T14:20:31;98475.19;;;13.05;61.78
42601;BME280;28229;48.856;9.088;2023-02-18T14:25:50;98482.06;;;13.06;61.88
42601;BME280;28229;48.856;9.088;2023-02-18T14:28:35;98477.56;;;13.06;61.61
42601;BME280;28229;48.856;9.088;2023-02-18T14:33:40;98481.19;;;13.12;61.89
42601;BME280;28229;48.856;9.088;2023-02-18T14:38:57;98481.94;;;13.19;62.72
42601;BME280;28229;48.856;9.088;2023-02-18T14:50:12;98500.28;;;13.14;62.60
42601;BME280;28229;48.856;9.088;2023-02-18T14:52:52;98491.41;;;13.08;62.33
42601;BME280;28229;48.856;9.088;2023-02-18T14:55:33;98484.53;;;13.01;62.36
42601;BME280;28229;48.856;9.088;2023-02-18T14:58:07;98490.50;;;12.96;63.20
42601;BME280;28229;48.856;9.088;2023-02-18T15:00:40;98484.84;;;12.92;62.84
42601;BME280;28229;48.856;9.088;2023-02-18T15:03:12;98489.50;;;12.90;63.13
42601;BME280;28229;48.856;9.088;2023-02-18T15:05:42;98491.16;;;12.91;62.84
42601;BME280;28229;48.856;9.088;2023-02-18T15:08:23;98489.88;;;12.94;63.19
42601;BME280;28229;48.856;9.088;2023-02-18T15:10:57;98492.78;;;12.92;63.80
42601;BME280;28229;48.856;9.088;2023-02-18T15:13:28;98492.78;;;12.92;63.80
42601;BME280;28229;48.856;9.088;2023-02-18T15:16:04;98502.97;;;12.89;64.18
42601;BME280;28229;48.856;9.088;2023-02-18T15:21:02;98498.38;;;12.77;64.62